sensor_id;sensor_type;location;lat;lon;timestamp;P1;durP1;ratioP1;P2;durP2;ratioP2
34978;SDS011;21185;50.978;13.720;2022-12-10T00:04:06;38.00;;;13.70;;
34978;SDS011;21185;50.978;13.720;2022-12-10T00:09:10;48.58;;;15.15;;
34978;SDS011;21185;50.978;13.720;2022-12-10T00:14:13;38.65;;;13.48;;
34978;SDS011;21185;50.978;13.720;2022-12-10T00:19:16;45.78;;;15.10;;
34978;SDS011;21185;50.978;13.720;2022-12-10T00:24:18;43.05;;;15.18;;
34978;SDS011;21185;50.978;13.720;2022-12-10T00:29:19;42.33;;;14.48;;
34978;SDS011;21185;50.978;13.720;2022-12-10T00:34:21;43.22;;;14.18;;
34978;SDS011;21185;50.978;13.720;2022-12-10T00:39:26;47.47;;;15.13;;
34978;SDS011;21185;50.978;13.720;2022-12-10T00:44:28;39.33;;;12.88;;
34978;SDS011;21185;50.978;13.720;2022-12-10T00:49:30;41.85;;;13.50;;
34978;SDS011;21185;50.978;13.720;2022-12-10T00:54:32;46.95;;;14.60;;
34978;SDS011;21185;50.978;13.720;2022-12-10T00:59:34;40.92;;;13.98;;
34978;SDS011;21185;50.978;13.720;2022-12-10T01:04:36;41.83;;;13.90;;
34978;SDS011;21185;50.978;13.720;2022-12-10T01:09:38;44.30;;;14.80;;
34978;SDS011;21185;50.978;13.720;2022-12-10T01:14:40;34.50;;;13.60;;
34978;SDS011;21185;50.978;13.720;2022-12-10T01:19:43;40.20;;;14.07;;
34978;SDS011;21185;50.978;13.720;2022-12-10T01:24:45;43.83;;;13.85;;
34978;SDS011;21185;50.978;13.720;2022-12-10T01:29:47;39.55;;;15.07;;
34978;SDS011;21185;50.978;13.720;2022-12-10T01:34:49;39.08;;;14.75;;
34978;SDS011;21185;50.978;13.720;2022-12-10T01:39:50;34.50;;;13.75;;
34978;SDS011;21185;50.978;13.720;2022-12-10T01:44:56;47.15;;;15.57;;
34978;SDS011;21185;50.978;13.720;2022-12-10T01:50:02;51.45;;;14.63;;
34978;SDS011;21185;50.978;13.720;2022-12-10T01:55:35;39.47;;;13.40;;
34978;SDS011;21185;50.978;13.720;2022-12-10T02:01:05;48.55;;;14.43;;
34978;SDS011;21185;50.978;13.720;2022-12-10T02:06:48;41.60;;;14.35;;
34978;SDS011;21185;50.978;13.720;2022-12-10T02:12:17;33.85;;;12.63;;
34978;SDS011;21185;50.978;13.720;2022-12-10T02:22:59;42.17;;;14.07;;
34978;SDS011;21185;50.978;13.720;2022-12-10T02:33:27;43.30;;;13.88;;
34978;SDS011;21185;50.978;13.720;2022-12-10T02:38:32;35.20;;;12.63;;
34978;SDS011;21185;50.978;13.720;2022-12-10T02:43:37;39.65;;;13.77;;
34978;SDS011;21185;50.978;13.720;2022-12-10T02:48:40;44.78;;;13.85;;
34978;SDS011;21185;50.978;13.720;2022-12-10T02:53:43;47.83;;;14.40;;
34978;SDS011;21185;50.978;13.720;2022-12-10T02:58:51;43.28;;;13.70;;
34978;SDS011;21185;50.978;13.720;2022-12-10T03:09:47;36.80;;;12.85;;
34978;SDS011;21185;50.978;13.720;2022-12-10T03:15:00;39.25;;;11.82;;
34978;SDS011;21185;50.978;13.720;2022-12-10T03:20:07;35.72;;;12.85;;
34978;SDS011;21185;50.978;13.720;2022-12-10T03:25:13;40.15;;;14.00;;
34978;SDS011;21185;50.978;13.720;2022-12-10T03:30:20;39.55;;;13.73;;
34978;SDS011;21185;50.978;13.720;2022-12-10T03:35:23;35.47;;;12.98;;
34978;SDS011;21185;50.978;13.720;2022-12-10T03:40:26;31.98;;;11.35;;
34978;SDS011;21185;50.978;13.720;2022-12-10T03:45:27;35.28;;;12.30;;
34978;SDS011;21185;50.978;13.720;2022-12-10T03:50:29;33.97;;;12.75;;
34978;SDS011;21185;50.978;13.720;2022-12-10T03:55:31;36.00;;;11.68;;
34978;SDS011;21185;50.978;13.720;2022-12-10T04:00:34;33.75;;;12.98;;
34978;SDS011;21185;50.978;13.720;2022-12-10T04:05:36;34.33;;;11.93;;
34978;SDS011;21185;50.978;13.720;2022-12-10T04:10:38;35.25;;;10.68;;
34978;SDS011;21185;50.978;13.720;2022-12-10T04:15:40;37.83;;;11.25;;
34978;SDS011;21185;50.978;13.720;2022-12-10T04:21:00;38.55;;;12.77;;
34978;SDS011;21185;50.978;13.720;2022-12-10T04:26:21;29.98;;;10.65;;
34978;SDS011;21185;50.978;13.720;2022-12-10T04:31:41;37.38;;;11.45;;
34978;SDS011;21185;50.978;13.720;2022-12-10T04:36:43;30.48;;;10.43;;
34978;SDS011;21185;50.978;13.720;2022-12-10T04:41:46;32.97;;;10.77;;
34978;SDS011;21185;50.978;13.720;2022-12-10T04:46:49;35.03;;;11.98;;
34978;SDS011;21185;50.978;13.720;2022-12-10T04:51:51;33.85;;;11.63;;
34978;SDS011;21185;50.978;13.720;2022-12-10T04:56:54;26.60;;;9.90;;
34978;SDS011;21185;50.978;13.720;2022-12-10T05:01:56;28.35;;;9.90;;
34978;SDS011;21185;50.978;13.720;2022-12-10T05:06:58;29.15;;;11.57;;
34978;SDS011;21185;50.978;13.720;2022-12-10T05:12:00;36.67;;;11.43;;
34978;SDS011;21185;50.978;13.720;2022-12-10T05:17:02;30.65;;;10.52;;
34978;SDS011;21185;50.978;13.720;2022-12-10T05:22:04;35.55;;;11.90;;
34978;SDS011;21185;50.978;13.720;2022-12-10T05:27:25;32.80;;;11.75;;
34978;SDS011;21185;50.978;13.720;2022-12-10T05:32:28;36.35;;;11.70;;
34978;SDS011;21185;50.978;13.720;2022-12-10T05:37:30;30.77;;;11.10;;
34978;SDS011;21185;50.978;13.720;2022-12-10T05:42:32;33.00;;;11.93;;
34978;SDS011;21185;50.978;13.720;2022-12-10T05:47:33;37.95;;;12.27;;
34978;SDS011;21185;50.978;13.720;2022-12-10T05:52:35;35.05;;;10.90;;
34978;SDS011;21185;50.978;13.720;2022-12-10T05:57:37;33.97;;;13.60;;
34978;SDS011;21185;50.978;13.720;2022-12-10T06:02:39;35.90;;;12.38;;
34978;SDS011;21185;50.978;13.720;2022-12-10T06:07:41;42.42;;;13.35;;
34978;SDS011;21185;50.978;13.720;2022-12-10T06:12:43;30.23;;;10.77;;
34978;SDS011;21185;50.978;13.720;2022-12-10T06:17:45;39.72;;;13.52;;
34978;SDS011;21185;50.978;13.720;2022-12-10T06:22:46;31.00;;;11.32;;
34978;SDS011;21185;50.978;13.720;2022-12-10T06:27:48;37.30;;;12.93;;
34978;SDS011;21185;50.978;13.720;2022-12-10T06:32:50;42.33;;;12.43;;
34978;SDS011;21185;50.978;13.720;2022-12-10T06:37:52;41.63;;;12.93;;
34978;SDS011;21185;50.978;13.720;2022-12-10T06:42:54;36.13;;;11.93;;
34978;SDS011;21185;50.978;13.720;2022-12-10T06:47:56;39.15;;;11.05;;
34978;SDS011;21185;50.978;13.720;2022-12-10T06:52:58;40.20;;;12.57;;
34978;SDS011;21185;50.978;13.720;2022-12-10T06:58:00;51.25;;;12.35;;
34978;SDS011;21185;50.978;13.720;2022-12-10T07:03:02;42.05;;;12.07;;
34978;SDS011;21185;50.978;13.720;2022-12-10T07:08:04;34.55;;;11.52;;
34978;SDS011;21185;50.978;13.720;2022-12-10T07:13:06;31.88;;;10.35;;
34978;SDS011;21185;50.978;13.720;2022-12-10T07:18:07;41.00;;;11.55;;
34978;SDS011;21185;50.978;13.720;2022-12-10T07:23:09;39.95;;;12.75;;
34978;SDS011;21185;50.978;13.720;2022-12-10T07:28:11;40.92;;;11.02;;
34978;SDS011;21185;50.978;13.720;2022-12-10T07:33:13;35.47;;;10.80;;
34978;SDS011;21185;50.978;13.720;2022-12-10T07:38:15;53.03;;;12.82;;
34978;SDS011;21185;50.978;13.720;2022-12-10T07:43:17;35.17;;;12.07;;
34978;SDS011;21185;50.978;13.720;2022-12-10T07:48:19;42.22;;;12.20;;
34978;SDS011;21185;50.978;13.720;2022-12-10T07:53:22;37.47;;;11.82;;
34978;SDS011;21185;50.978;13.720;2022-12-10T07:58:23;32.67;;;11.23;;
34978;SDS011;21185;50.978;13.720;2022-12-10T08:03:25;39.05;;;12.18;;
34978;SDS011;21185;50.978;13.720;2022-12-10T08:08:27;33.03;;;10.75;;
34978;SDS011;21185;50.978;13.720;2022-12-10T08:13:29;32.03;;;10.88;;
34978;SDS011;21185;50.978;13.720;2022-12-10T08:18:32;32.15;;;12.50;;
34978;SDS011;21185;50.978;13.720;2022-12-10T08:23:35;43.92;;;11.38;;
34978;SDS011;21185;50.978;13.720;2022-12-10T08:28:37;39.05;;;13.43;;
34978;SDS011;21185;50.978;13.720;2022-12-10T08:33:39;34.40;;;10.80;;
34978;SDS011;21185;50.978;13.720;2022-12-10T08:38:41;33.03;;;10.90;;
34978;SDS011;21185;50.978;13.720;2022-12-10T08:43:44;31.40;;;12.02;;
34978;SDS011;21185;50.978;13.720;2022-12-10T08:48:46;32.83;;;10.82;;
34978;SDS011;21185;50.978;13.720;2022-12-10T08:53:48;29.15;;;9.25;;
34978;SDS011;21185;50.978;13.720;2022-12-10T08:58:50;33.17;;;10.75;;
34978;SDS011;21185;50.978;13.720;2022-12-10T09:03:52;34.78;;;11.07;;
34978;SDS011;21185;50.978;13.720;2022-12-10T09:08:55;42.15;;;11.60;;
34978;SDS011;21185;50.978;13.720;2022-12-10T09:13:57;38.75;;;11.70;;
34978;SDS011;21185;50.978;13.720;2022-12-10T09:19:00;30.63;;;10.68;;
34978;SDS011;21185;50.978;13.720;2022-12-10T09:24:02;33.53;;;11.35;;
34978;SDS011;21185;50.978;13.720;2022-12-10T09:29:04;39.35;;;11.65;;
34978;SDS011;21185;50.978;13.720;2022-12-10T09:34:06;37.30;;;12.63;;
34978;SDS011;21185;50.978;13.720;2022-12-10T09:39:08;47.03;;;13.20;;
34978;SDS011;21185;50.978;13.720;2022-12-10T09:44:26;34.35;;;11.50;;
34978;SDS011;21185;50.978;13.720;2022-12-10T09:49:59;43.63;;;12.18;;
34978;SDS011;21185;50.978;13.720;2022-12-10T09:55:15;38.38;;;12.48;;
34978;SDS011;21185;50.978;13.720;2022-12-10T10:00:30;26.63;;;10.55;;
34978;SDS011;21185;50.978;13.720;2022-12-10T10:05:38;42.03;;;11.60;;
34978;SDS011;21185;50.978;13.720;2022-12-10T10:10:43;29.02;;;10.50;;
34978;SDS011;21185;50.978;13.720;2022-12-10T10:15:46;41.90;;;11.50;;
34978;SDS011;21185;50.978;13.720;2022-12-10T10:20:49;35.75;;;14.13;;
34978;SDS011;21185;50.978;13.720;2022-12-10T10:25:51;29.38;;;11.82;;
34978;SDS011;21185;50.978;13.720;2022-12-10T10:30:55;30.27;;;10.45;;
34978;SDS011;21185;50.978;13.720;2022-12-10T10:35:57;32.95;;;10.13;;
34978;SDS011;21185;50.978;13.720;2022-12-10T10:41:01;27.58;;;9.85;;
34978;SDS011;21185;50.978;13.720;2022-12-10T10:46:06;35.35;;;11.82;;
34978;SDS011;21185;50.978;13.720;2022-12-10T10:56:16;31.85;;;11.82;;
34978;SDS011;21185;50.978;13.720;2022-12-10T11:01:25;27.88;;;10.38;;
34978;SDS011;21185;50.978;13.720;2022-12-10T11:06:44;28.65;;;10.98;;
34978;SDS011;21185;50.978;13.720;2022-12-10T11:11:50;27.80;;;10.23;;
34978;SDS011;21185;50.978;13.720;2022-12-10T11:17:00;33.42;;;11.55;;
34978;SDS011;21185;50.978;13.720;2022-12-10T11:22:19;27.63;;;10.32;;
34978;SDS011;21185;50.978;13.720;2022-12-10T11:27:57;27.80;;;10.68;;
34978;SDS011;21185;50.978;13.720;2022-12-10T11:38:15;29.25;;;11.60;;
34978;SDS011;21185;50.978;13.720;2022-12-10T11:43:39;28.25;;;11.00;;
34978;SDS011;21185;50.978;13.720;2022-12-10T12:21:15;29.00;;;11.00;;
34978;SDS011;21185;50.978;13.720;2022-12-10T12:26:23;28.90;;;10.57;;
34978;SDS011;21185;50.978;13.720;2022-12-10T12:31:43;22.27;;;8.75;;
34978;SDS011;21185;50.978;13.720;2022-12-10T12:36:49;28.73;;;10.85;;
34978;SDS011;21185;50.978;13.720;2022-12-10T12:47:22;24.83;;;9.52;;
34978;SDS011;21185;50.978;13.720;2022-12-10T12:58:14;27.75;;;10.60;;
34978;SDS011;21185;50.978;13.720;2022-12-10T13:03:36;23.80;;;10.60;;
34978;SDS011;21185;50.978;13.720;2022-12-10T13:08:42;22.55;;;10.18;;
34978;SDS011;21185;50.978;13.720;2022-12-10T13:14:04;21.88;;;9.07;;
34978;SDS011;21185;50.978;13.720;2022-12-10T13:35:15;24.52;;;9.55;;
34978;SDS011;21185;50.978;13.720;2022-12-10T13:45:35;25.55;;;10.85;;
34978;SDS011;21185;50.978;13.720;2022-12-10T14:01:16;19.88;;;8.77;;
34978;SDS011;21185;50.978;13.720;2022-12-10T14:06:21;22.10;;;9.02;;
34978;SDS011;21185;50.978;13.720;2022-12-10T14:11:26;21.80;;;8.43;;
34978;SDS011;21185;50.978;13.720;2022-12-10T14:16:38;24.73;;;9.65;;
34978;SDS011;21185;50.978;13.720;2022-12-10T14:21:42;19.92;;;8.60;;
34978;SDS011;21185;50.978;13.720;2022-12-10T14:26:54;23.23;;;8.57;;
34978;SDS011;21185;50.978;13.720;2022-12-10T14:32:24;22.38;;;9.15;;
34978;SDS011;21185;50.978;13.720;2022-12-10T14:37:33;22.95;;;8.88;;
34978;SDS011;21185;50.978;13.720;2022-12-10T14:42:38;22.73;;;8.75;;
34978;SDS011;21185;50.978;13.720;2022-12-10T14:47:40;32.15;;;11.98;;
34978;SDS011;21185;50.978;13.720;2022-12-10T14:52:50;22.95;;;9.20;;
34978;SDS011;21185;50.978;13.720;2022-12-10T14:57:54;22.48;;;8.73;;
34978;SDS011;21185;50.978;13.720;2022-12-10T15:03:09;24.08;;;9.73;;
34978;SDS011;21185;50.978;13.720;2022-12-10T15:08:13;19.60;;;8.73;;
34978;SDS011;21185;50.978;13.720;2022-12-10T15:13:39;23.08;;;10.35;;
34978;SDS011;21185;50.978;13.720;2022-12-10T15:18:42;29.85;;;13.60;;
34978;SDS011;21185;50.978;13.720;2022-12-10T15:23:45;31.05;;;11.05;;
34978;SDS011;21185;50.978;13.720;2022-12-10T15:28:48;27.02;;;10.48;;
34978;SDS011;21185;50.978;13.720;2022-12-10T15:38:57;28.55;;;11.90;;
34978;SDS011;21185;50.978;13.720;2022-12-10T15:44:34;33.88;;;15.23;;
34978;SDS011;21185;50.978;13.720;2022-12-10T15:49:40;46.40;;;18.17;;
34978;SDS011;21185;50.978;13.720;2022-12-10T15:54:44;34.97;;;14.27;;
34978;SDS011;21185;50.978;13.720;2022-12-10T15:59:48;38.78;;;15.00;;
34978;SDS011;21185;50.978;13.720;2022-12-10T16:04:52;36.70;;;15.13;;
34978;SDS011;21185;50.978;13.720;2022-12-10T16:09:55;26.98;;;11.48;;
34978;SDS011;21185;50.978;13.720;2022-12-10T16:14:57;31.80;;;13.07;;
34978;SDS011;21185;50.978;13.720;2022-12-10T16:25:33;29.90;;;11.57;;
34978;SDS011;21185;50.978;13.720;2022-12-10T16:30:38;27.05;;;10.63;;
34978;SDS011;21185;50.978;13.720;2022-12-10T16:35:49;21.50;;;9.70;;
34978;SDS011;21185;50.978;13.720;2022-12-10T16:40:52;23.88;;;11.13;;
34978;SDS011;21185;50.978;13.720;2022-12-10T16:45:55;23.02;;;10.27;;
34978;SDS011;21185;50.978;13.720;2022-12-10T16:50:58;27.92;;;11.13;;
34978;SDS011;21185;50.978;13.720;2022-12-10T16:56:10;29.35;;;11.73;;
34978;SDS011;21185;50.978;13.720;2022-12-10T17:01:17;29.97;;;10.00;;
34978;SDS011;21185;50.978;13.720;2022-12-10T17:06:24;28.50;;;11.52;;
34978;SDS011;21185;50.978;13.720;2022-12-10T17:11:35;30.50;;;11.95;;
34978;SDS011;21185;50.978;13.720;2022-12-10T17:16:46;25.27;;;11.25;;
34978;SDS011;21185;50.978;13.720;2022-12-10T17:21:49;28.48;;;10.60;;
34978;SDS011;21185;50.978;13.720;2022-12-10T17:26:52;26.30;;;11.10;;
34978;SDS011;21185;50.978;13.720;2022-12-10T17:31:59;28.42;;;9.57;;
34978;SDS011;21185;50.978;13.720;2022-12-10T17:37:01;31.48;;;12.00;;
34978;SDS011;21185;50.978;13.720;2022-12-10T17:42:03;27.27;;;11.68;;
34978;SDS011;21185;50.978;13.720;2022-12-10T17:47:15;29.33;;;10.95;;
34978;SDS011;21185;50.978;13.720;2022-12-10T17:52:21;22.42;;;9.20;;
34978;SDS011;21185;50.978;13.720;2022-12-10T17:57:23;25.60;;;10.93;;
34978;SDS011;21185;50.978;13.720;2022-12-10T18:02:27;26.98;;;11.55;;
34978;SDS011;21185;50.978;13.720;2022-12-10T18:07:29;33.38;;;11.40;;
34978;SDS011;21185;50.978;13.720;2022-12-10T18:12:31;24.75;;;10.52;;
34978;SDS011;21185;50.978;13.720;2022-12-10T18:17:32;27.35;;;11.20;;
34978;SDS011;21185;50.978;13.720;2022-12-10T18:22:34;29.60;;;10.77;;
34978;SDS011;21185;50.978;13.720;2022-12-10T18:27:37;24.85;;;10.77;;
34978;SDS011;21185;50.978;13.720;2022-12-10T18:32:39;28.42;;;10.75;;
34978;SDS011;21185;50.978;13.720;2022-12-10T18:37:41;29.02;;;10.30;;
34978;SDS011;21185;50.978;13.720;2022-12-10T18:42:43;29.88;;;12.13;;
34978;SDS011;21185;50.978;13.720;2022-12-10T18:47:48;27.20;;;10.90;;
34978;SDS011;21185;50.978;13.720;2022-12-10T18:52:53;27.77;;;11.73;;
34978;SDS011;21185;50.978;13.720;2022-12-10T18:57:56;26.55;;;11.45;;
34978;SDS011;21185;50.978;13.720;2022-12-10T19:03:07;35.70;;;11.50;;
34978;SDS011;21185;50.978;13.720;2022-12-10T19:08:10;26.42;;;11.93;;
34978;SDS011;21185;50.978;13.720;2022-12-10T19:13:14;30.35;;;12.77;;
34978;SDS011;21185;50.978;13.720;2022-12-10T19:18:16;28.95;;;12.23;;
34978;SDS011;21185;50.978;13.720;2022-12-10T19:23:17;31.75;;;12.43;;
34978;SDS011;21185;50.978;13.720;2022-12-10T19:28:19;33.55;;;12.65;;
34978;SDS011;21185;50.978;13.720;2022-12-10T19:33:21;28.02;;;10.65;;
34978;SDS011;21185;50.978;13.720;2022-12-10T19:38:24;39.63;;;13.93;;
34978;SDS011;21185;50.978;13.720;2022-12-10T19:43:26;33.78;;;12.95;;
34978;SDS011;21185;50.978;13.720;2022-12-10T19:48:27;35.45;;;12.55;;
34978;SDS011;21185;50.978;13.720;2022-12-10T19:53:36;31.60;;;10.88;;
34978;SDS011;21185;50.978;13.720;2022-12-10T19:58:39;32.13;;;11.80;;
34978;SDS011;21185;50.978;13.720;2022-12-10T20:03:41;28.08;;;10.32;;
34978;SDS011;21185;50.978;13.720;2022-12-10T20:08:44;27.02;;;10.45;;
34978;SDS011;21185;50.978;13.720;2022-12-10T20:13:46;35.75;;;13.23;;
34978;SDS011;21185;50.978;13.720;2022-12-10T20:18:48;27.17;;;10.85;;
34978;SDS011;21185;50.978;13.720;2022-12-10T20:23:51;27.48;;;11.38;;
34978;SDS011;21185;50.978;13.720;2022-12-10T20:29:00;33.22;;;12.77;;
34978;SDS011;21185;50.978;13.720;2022-12-10T20:34:03;30.52;;;11.18;;
34978;SDS011;21185;50.978;13.720;2022-12-10T20:39:21;27.27;;;10.10;;
34978;SDS011;21185;50.978;13.720;2022-12-10T20:44:25;26.40;;;11.02;;
34978;SDS011;21185;50.978;13.720;2022-12-10T20:49:27;34.38;;;11.88;;
34978;SDS011;21185;50.978;13.720;2022-12-10T20:54:29;24.02;;;10.85;;
34978;SDS011;21185;50.978;13.720;2022-12-10T20:59:31;27.48;;;9.65;;
34978;SDS011;21185;50.978;13.720;2022-12-10T21:04:36;24.83;;;11.27;;
34978;SDS011;21185;50.978;13.720;2022-12-10T21:09:38;32.28;;;11.48;;
34978;SDS011;21185;50.978;13.720;2022-12-10T21:14:39;28.23;;;9.80;;
34978;SDS011;21185;50.978;13.720;2022-12-10T21:19:56;26.13;;;10.52;;
34978;SDS011;21185;50.978;13.720;2022-12-10T21:24:58;23.15;;;9.25;;
34978;SDS011;21185;50.978;13.720;2022-12-10T21:30:00;30.80;;;12.27;;
34978;SDS011;21185;50.978;13.720;2022-12-10T21:35:02;27.65;;;11.20;;
34978;SDS011;21185;50.978;13.720;2022-12-10T21:40:05;25.55;;;11.23;;
34978;SDS011;21185;50.978;13.720;2022-12-10T21:45:07;29.90;;;11.13;;
34978;SDS011;21185;50.978;13.720;2022-12-10T21:50:10;26.58;;;12.90;;
34978;SDS011;21185;50.978;13.720;2022-12-10T21:55:12;30.30;;;11.82;;
34978;SDS011;21185;50.978;13.720;2022-12-10T22:00:15;20.70;;;9.88;;
34978;SDS011;21185;50.978;13.720;2022-12-10T22:05:17;23.88;;;10.73;;
34978;SDS011;21185;50.978;13.720;2022-12-10T22:10:19;28.77;;;10.73;;
34978;SDS011;21185;50.978;13.720;2022-12-10T22:15:21;29.50;;;11.45;;
34978;SDS011;21185;50.978;13.720;2022-12-10T22:20:22;24.35;;;9.85;;
34978;SDS011;21185;50.978;13.720;2022-12-10T22:25:24;17.60;;;7.95;;
34978;SDS011;21185;50.978;13.720;2022-12-10T22:30:27;20.33;;;8.88;;
34978;SDS011;21185;50.978;13.720;2022-12-10T22:35:29;24.92;;;9.77;;
34978;SDS011;21185;50.978;13.720;2022-12-10T22:40:31;23.52;;;9.80;;
34978;SDS011;21185;50.978;13.720;2022-12-10T22:45:33;24.80;;;10.15;;
34978;SDS011;21185;50.978;13.720;2022-12-10T22:50:36;21.35;;;9.88;;
34978;SDS011;21185;50.978;13.720;2022-12-10T22:55:38;22.88;;;9.88;;
34978;SDS011;21185;50.978;13.720;2022-12-10T23:00:40;21.90;;;9.60;;
34978;SDS011;21185;50.978;13.720;2022-12-10T23:05:42;23.88;;;9.50;;
34978;SDS011;21185;50.978;13.720;2022-12-10T23:10:47;18.95;;;8.93;;
34978;SDS011;21185;50.978;13.720;2022-12-10T23:15:49;21.95;;;10.18;;
34978;SDS011;21185;50.978;13.720;2022-12-10T23:20:53;24.50;;;9.73;;
34978;SDS011;21185;50.978;13.720;2022-12-10T23:25:54;25.42;;;8.80;;
34978;SDS011;21185;50.978;13.720;2022-12-10T23:30:57;22.48;;;10.70;;
34978;SDS011;21185;50.978;13.720;2022-12-10T23:36:02;23.00;;;9.60;;
34978;SDS011;21185;50.978;13.720;2022-12-10T23:41:06;24.10;;;10.32;;
34978;SDS011;21185;50.978;13.720;2022-12-10T23:46:09;21.17;;;9.55;;
34978;SDS011;21185;50.978;13.720;2022-12-10T23:51:11;23.25;;;9.48;;
34978;SDS011;21185;50.978;13.720;2022-12-10T23:56:14;24.20;;;10.55;;
